sensor_id;sensor_type;location;lat;lon;timestamp;temperature;humidity
37974;DHT22;23796;51.458;7.000;2024-03-06T00:02:08;6.50;99.90
37974;DHT22;23796;51.458;7.000;2024-03-06T00:04:34;6.60;99.90
37974;DHT22;23796;51.458;7.000;2024-03-06T00:07:00;6.50;99.90
37974;DHT22;23796;51.458;7.000;2024-03-06T00:09:28;6.40;99.90
37974;DHT22;23796;51.458;7.000;2024-03-06T00:11:54;6.30;99.90
37974;DHT22;23796;51.458;7.000;2024-03-06T00:14:20;6.20;99.90
37974;DHT22;23796;51.458;7.000;2024-03-06T00:16:50;6.20;99.90
37974;DHT22;23796;51.458;7.000;2024-03-06T00:19:16;6.20;99.90
37974;DHT22;23796;51.458;7.000;2024-03-06T00:21:42;6.20;99.90
37974;DHT22;23796;51.458;7.000;2024-03-06T00:24:08;6.30;99.90
37974;DHT22;23796;51.458;7.000;2024-03-06T00:26:33;6.20;99.90
37974;DHT22;23796;51.458;7.000;2024-03-06T00:28:59;6.10;99.90
37974;DHT22;23796;51.458;7.000;2024-03-06T00:31:27;6.10;99.90
37974;DHT22;23796;51.458;7.000;2024-03-06T00:33:55;6.20;99.90
37974;DHT22;23796;51.458;7.000;2024-03-06T00:36:20;6.20;99.90
37974;DHT22;23796;51.458;7.000;2024-03-06T00:38:48;6.20;99.90
37974;DHT22;23796;51.458;7.000;2024-03-06T00:41:13;6.20;99.90
37974;DHT22;23796;51.458;7.000;2024-03-06T00:43:41;6.20;99.90
37974;DHT22;23796;51.458;7.000;2024-03-06T00:46:09;6.20;99.90
37974;DHT22;23796;51.458;7.000;2024-03-06T00:48:37;6.20;99.90
37974;DHT22;23796;51.458;7.000;2024-03-06T00:51:08;6.20;99.90
37974;DHT22;23796;51.458;7.000;2024-03-06T00:53:35;6.20;99.90
37974;DHT22;23796;51.458;7.000;2024-03-06T00:56:00;6.10;99.90
37974;DHT22;23796;51.458;7.000;2024-03-06T00:58:26;6.10;99.90
37974;DHT22;23796;51.458;7.000;2024-03-06T01:00:52;6.10;99.90
37974;DHT22;23796;51.458;7.000;2024-03-06T01:03:17;6.10;99.90
37974;DHT22;23796;51.458;7.000;2024-03-06T01:05:43;6.10;99.90
37974;DHT22;23796;51.458;7.000;2024-03-06T01:08:08;6.00;99.90
37974;DHT22;23796;51.458;7.000;2024-03-06T01:10:34;6.00;99.90
37974;DHT22;23796;51.458;7.000;2024-03-06T01:13:00;6.00;99.90
37974;DHT22;23796;51.458;7.000;2024-03-06T01:15:25;6.00;99.90
37974;DHT22;23796;51.458;7.000;2024-03-06T01:17:54;6.00;99.90
37974;DHT22;23796;51.458;7.000;2024-03-06T01:20:19;6.00;99.90
37974;DHT22;23796;51.458;7.000;2024-03-06T01:22:45;6.00;99.90
37974;DHT22;23796;51.458;7.000;2024-03-06T01:25:12;6.00;99.90
37974;DHT22;23796;51.458;7.000;2024-03-06T01:27:39;6.00;99.90
37974;DHT22;23796;51.458;7.000;2024-03-06T01:30:06;6.00;99.90
37974;DHT22;23796;51.458;7.000;2024-03-06T01:32:31;6.00;99.90
37974;DHT22;23796;51.458;7.000;2024-03-06T01:34:58;6.00;99.90
37974;DHT22;23796;51.458;7.000;2024-03-06T01:37:24;6.00;99.90
37974;DHT22;23796;51.458;7.000;2024-03-06T01:39:49;6.00;99.90
37974;DHT22;23796;51.458;7.000;2024-03-06T01:42:17;6.00;99.90
37974;DHT22;23796;51.458;7.000;2024-03-06T01:44:43;6.10;99.90
37974;DHT22;23796;51.458;7.000;2024-03-06T01:47:09;6.10;99.90
37974;DHT22;23796;51.458;7.000;2024-03-06T01:49:34;6.20;99.90
37974;DHT22;23796;51.458;7.000;2024-03-06T01:52:01;6.20;99.90
37974;DHT22;23796;51.458;7.000;2024-03-06T01:54:27;6.20;99.90
37974;DHT22;23796;51.458;7.000;2024-03-06T01:56:54;6.20;99.90
37974;DHT22;23796;51.458;7.000;2024-03-06T01:59:21;6.20;99.90
37974;DHT22;23796;51.458;7.000;2024-03-06T02:01:49;6.20;99.90
37974;DHT22;23796;51.458;7.000;2024-03-06T02:04:17;6.10;99.90
37974;DHT22;23796;51.458;7.000;2024-03-06T02:06:45;6.10;99.90
37974;DHT22;23796;51.458;7.000;2024-03-06T02:09:12;6.10;99.90
37974;DHT22;23796;51.458;7.000;2024-03-06T02:11:39;6.10;99.90
37974;DHT22;23796;51.458;7.000;2024-03-06T02:14:07;6.00;99.90
37974;DHT22;23796;51.458;7.000;2024-03-06T02:16:38;6.00;99.90
37974;DHT22;23796;51.458;7.000;2024-03-06T02:19:05;5.90;99.90
37974;DHT22;23796;51.458;7.000;2024-03-06T02:21:30;5.90;99.90
37974;DHT22;23796;51.458;7.000;2024-03-06T02:23:59;5.90;99.90
37974;DHT22;23796;51.458;7.000;2024-03-06T02:26:25;5.80;99.90
37974;DHT22;23796;51.458;7.000;2024-03-06T02:28:51;5.80;99.90
37974;DHT22;23796;51.458;7.000;2024-03-06T02:31:18;5.80;99.90
37974;DHT22;23796;51.458;7.000;2024-03-06T02:33:45;5.80;99.90
37974;DHT22;23796;51.458;7.000;2024-03-06T02:36:12;5.80;99.90
37974;DHT22;23796;51.458;7.000;2024-03-06T02:38:38;5.70;99.90
37974;DHT22;23796;51.458;7.000;2024-03-06T02:41:06;5.70;99.90
37974;DHT22;23796;51.458;7.000;2024-03-06T02:43:35;5.70;99.90
37974;DHT22;23796;51.458;7.000;2024-03-06T02:46:01;5.60;99.90
37974;DHT22;23796;51.458;7.000;2024-03-06T02:48:29;5.60;99.90
37974;DHT22;23796;51.458;7.000;2024-03-06T02:50:56;5.50;99.90
37974;DHT22;23796;51.458;7.000;2024-03-06T02:53:21;5.50;99.90
37974;DHT22;23796;51.458;7.000;2024-03-06T02:55:49;5.50;99.90
37974;DHT22;23796;51.458;7.000;2024-03-06T02:58:15;5.40;99.90
37974;DHT22;23796;51.458;7.000;2024-03-06T03:00:46;5.40;99.90
37974;DHT22;23796;51.458;7.000;2024-03-06T03:03:13;5.40;99.90
37974;DHT22;23796;51.458;7.000;2024-03-06T03:05:38;5.40;99.90
37974;DHT22;23796;51.458;7.000;2024-03-06T03:08:05;5.50;99.90
37974;DHT22;23796;51.458;7.000;2024-03-06T03:10:33;5.60;99.90
37974;DHT22;23796;51.458;7.000;2024-03-06T03:13:00;5.70;99.90
37974;DHT22;23796;51.458;7.000;2024-03-06T03:15:25;5.70;99.90
37974;DHT22;23796;51.458;7.000;2024-03-06T03:17:51;5.80;99.90
37974;DHT22;23796;51.458;7.000;2024-03-06T03:20:17;5.80;99.90
37974;DHT22;23796;51.458;7.000;2024-03-06T03:22:43;6.00;99.90
37974;DHT22;23796;51.458;7.000;2024-03-06T03:25:10;6.00;99.90
37974;DHT22;23796;51.458;7.000;2024-03-06T03:27:41;6.10;99.90
37974;DHT22;23796;51.458;7.000;2024-03-06T03:30:10;6.30;99.90
37974;DHT22;23796;51.458;7.000;2024-03-06T03:32:36;6.40;99.90
37974;DHT22;23796;51.458;7.000;2024-03-06T03:35:04;6.50;99.90
37974;DHT22;23796;51.458;7.000;2024-03-06T03:37:30;6.60;99.90
37974;DHT22;23796;51.458;7.000;2024-03-06T03:39:56;6.70;99.90
37974;DHT22;23796;51.458;7.000;2024-03-06T03:42:22;6.70;99.90
37974;DHT22;23796;51.458;7.000;2024-03-06T03:44:47;6.80;99.90
37974;DHT22;23796;51.458;7.000;2024-03-06T03:47:13;6.90;99.90
37974;DHT22;23796;51.458;7.000;2024-03-06T03:49:38;7.00;99.90
37974;DHT22;23796;51.458;7.000;2024-03-06T03:52:04;6.90;99.90
37974;DHT22;23796;51.458;7.000;2024-03-06T03:54:30;7.00;99.90
37974;DHT22;23796;51.458;7.000;2024-03-06T03:56:55;6.90;99.90
37974;DHT22;23796;51.458;7.000;2024-03-06T03:59:21;6.90;99.90
37974;DHT22;23796;51.458;7.000;2024-03-06T04:01:47;6.90;99.90
37974;DHT22;23796;51.458;7.000;2024-03-06T04:04:13;7.00;99.90
37974;DHT22;23796;51.458;7.000;2024-03-06T04:06:38;7.00;99.90
37974;DHT22;23796;51.458;7.000;2024-03-06T04:09:04;6.90;99.90
37974;DHT22;23796;51.458;7.000;2024-03-06T04:11:38;6.80;99.90
37974;DHT22;23796;51.458;7.000;2024-03-06T04:14:04;6.80;99.90
37974;DHT22;23796;51.458;7.000;2024-03-06T04:16:30;6.80;99.90
37974;DHT22;23796;51.458;7.000;2024-03-06T04:18:55;6.70;99.90
37974;DHT22;23796;51.458;7.000;2024-03-06T04:21:21;6.70;99.90
37974;DHT22;23796;51.458;7.000;2024-03-06T04:23:48;6.60;99.90
37974;DHT22;23796;51.458;7.000;2024-03-06T04:26:14;6.60;99.90
37974;DHT22;23796;51.458;7.000;2024-03-06T04:28:39;6.60;99.90
37974;DHT22;23796;51.458;7.000;2024-03-06T04:31:05;6.60;99.90
37974;DHT22;23796;51.458;7.000;2024-03-06T04:33:33;6.50;99.90
37974;DHT22;23796;51.458;7.000;2024-03-06T04:36:05;6.50;99.90
37974;DHT22;23796;51.458;7.000;2024-03-06T04:38:31;6.40;99.90
37974;DHT22;23796;51.458;7.000;2024-03-06T04:40:57;6.40;99.90
37974;DHT22;23796;51.458;7.000;2024-03-06T04:43:23;6.20;99.90
37974;DHT22;23796;51.458;7.000;2024-03-06T04:45:51;5.90;99.90
37974;DHT22;23796;51.458;7.000;2024-03-06T04:48:17;5.80;99.90
37974;DHT22;23796;51.458;7.000;2024-03-06T04:50:42;5.90;99.90
37974;DHT22;23796;51.458;7.000;2024-03-06T04:53:08;5.90;99.90
37974;DHT22;23796;51.458;7.000;2024-03-06T04:55:33;5.90;99.90
37974;DHT22;23796;51.458;7.000;2024-03-06T04:58:02;5.90;99.90
37974;DHT22;23796;51.458;7.000;2024-03-06T05:00:28;5.90;99.90
37974;DHT22;23796;51.458;7.000;2024-03-06T05:02:54;5.90;99.90
37974;DHT22;23796;51.458;7.000;2024-03-06T05:05:21;5.80;99.90
37974;DHT22;23796;51.458;7.000;2024-03-06T05:07:47;5.80;99.90
37974;DHT22;23796;51.458;7.000;2024-03-06T05:10:15;5.80;99.90
37974;DHT22;23796;51.458;7.000;2024-03-06T05:12:44;5.80;99.90
37974;DHT22;23796;51.458;7.000;2024-03-06T05:15:10;5.80;99.90
37974;DHT22;23796;51.458;7.000;2024-03-06T05:17:36;5.80;99.90
37974;DHT22;23796;51.458;7.000;2024-03-06T05:20:02;5.80;99.90
37974;DHT22;23796;51.458;7.000;2024-03-06T05:22:29;5.80;99.90
37974;DHT22;23796;51.458;7.000;2024-03-06T05:24:54;5.70;99.90
37974;DHT22;23796;51.458;7.000;2024-03-06T05:27:21;5.70;99.90
37974;DHT22;23796;51.458;7.000;2024-03-06T05:29:49;5.70;99.90
37974;DHT22;23796;51.458;7.000;2024-03-06T05:32:14;5.70;99.90
37974;DHT22;23796;51.458;7.000;2024-03-06T05:34:40;5.50;99.90
37974;DHT22;23796;51.458;7.000;2024-03-06T05:37:05;5.40;99.90
37974;DHT22;23796;51.458;7.000;2024-03-06T05:39:32;5.30;99.90
37974;DHT22;23796;51.458;7.000;2024-03-06T05:42:02;5.40;99.90
37974;DHT22;23796;51.458;7.000;2024-03-06T05:44:31;5.40;99.90
37974;DHT22;23796;51.458;7.000;2024-03-06T05:46:58;5.40;99.90
37974;DHT22;23796;51.458;7.000;2024-03-06T05:49:23;5.40;99.90
37974;DHT22;23796;51.458;7.000;2024-03-06T05:51:52;5.50;99.90
37974;DHT22;23796;51.458;7.000;2024-03-06T05:54:20;5.30;99.90
37974;DHT22;23796;51.458;7.000;2024-03-06T05:56:51;5.30;99.90
37974;DHT22;23796;51.458;7.000;2024-03-06T05:59:17;5.30;99.90
37974;DHT22;23796;51.458;7.000;2024-03-06T06:01:43;5.30;99.90
37974;DHT22;23796;51.458;7.000;2024-03-06T06:04:09;5.40;99.90
37974;DHT22;23796;51.458;7.000;2024-03-06T06:06:35;5.40;99.90
37974;DHT22;23796;51.458;7.000;2024-03-06T06:09:01;5.50;99.90
37974;DHT22;23796;51.458;7.000;2024-03-06T06:11:30;5.60;99.90
37974;DHT22;23796;51.458;7.000;2024-03-06T06:14:00;5.60;99.90
37974;DHT22;23796;51.458;7.000;2024-03-06T06:16:26;5.70;99.90
37974;DHT22;23796;51.458;7.000;2024-03-06T06:18:52;5.70;99.90
37974;DHT22;23796;51.458;7.000;2024-03-06T06:21:17;5.70;99.90
37974;DHT22;23796;51.458;7.000;2024-03-06T06:23:44;5.70;99.90
37974;DHT22;23796;51.458;7.000;2024-03-06T06:26:09;5.70;99.90
37974;DHT22;23796;51.458;7.000;2024-03-06T06:28:36;5.60;99.90
37974;DHT22;23796;51.458;7.000;2024-03-06T06:31:03;5.60;99.90
37974;DHT22;23796;51.458;7.000;2024-03-06T06:33:29;5.60;99.90
37974;DHT22;23796;51.458;7.000;2024-03-06T06:35:55;5.70;99.90
37974;DHT22;23796;51.458;7.000;2024-03-06T06:38:21;5.70;99.90
37974;DHT22;23796;51.458;7.000;2024-03-06T06:40:49;5.70;99.90
37974;DHT22;23796;51.458;7.000;2024-03-06T06:43:16;5.70;99.90
37974;DHT22;23796;51.458;7.000;2024-03-06T06:45:41;5.70;99.90
37974;DHT22;23796;51.458;7.000;2024-03-06T06:48:07;5.80;99.90
37974;DHT22;23796;51.458;7.000;2024-03-06T06:50:34;5.80;99.90
37974;DHT22;23796;51.458;7.000;2024-03-06T06:53:00;5.80;99.90
37974;DHT22;23796;51.458;7.000;2024-03-06T06:55:25;5.80;99.90
37974;DHT22;23796;51.458;7.000;2024-03-06T06:57:51;5.90;99.90
37974;DHT22;23796;51.458;7.000;2024-03-06T07:00:17;5.90;99.90
37974;DHT22;23796;51.458;7.000;2024-03-06T07:02:44;6.00;99.90
37974;DHT22;23796;51.458;7.000;2024-03-06T07:05:12;6.00;99.90
37974;DHT22;23796;51.458;7.000;2024-03-06T07:07:38;6.00;99.90
37974;DHT22;23796;51.458;7.000;2024-03-06T07:10:07;6.10;99.90
37974;DHT22;23796;51.458;7.000;2024-03-06T07:12:33;6.10;99.90
37974;DHT22;23796;51.458;7.000;2024-03-06T07:15:01;6.20;99.90
37974;DHT22;23796;51.458;7.000;2024-03-06T07:17:30;6.20;99.90
37974;DHT22;23796;51.458;7.000;2024-03-06T07:19:55;6.30;99.90
37974;DHT22;23796;51.458;7.000;2024-03-06T07:22:23;6.30;99.90
37974;DHT22;23796;51.458;7.000;2024-03-06T07:24:51;6.40;99.90
37974;DHT22;23796;51.458;7.000;2024-03-06T07:27:16;6.40;99.90
37974;DHT22;23796;51.458;7.000;2024-03-06T07:29:43;6.50;99.90
37974;DHT22;23796;51.458;7.000;2024-03-06T07:32:13;6.50;99.90
37974;DHT22;23796;51.458;7.000;2024-03-06T07:34:41;6.60;99.90
37974;DHT22;23796;51.458;7.000;2024-03-06T07:37:07;6.60;99.90
37974;DHT22;23796;51.458;7.000;2024-03-06T07:39:33;6.70;99.90
37974;DHT22;23796;51.458;7.000;2024-03-06T07:42:00;6.70;99.90
37974;DHT22;23796;51.458;7.000;2024-03-06T07:44:28;6.80;99.90
37974;DHT22;23796;51.458;7.000;2024-03-06T07:46:53;6.80;99.90
37974;DHT22;23796;51.458;7.000;2024-03-06T07:49:20;6.90;99.90
37974;DHT22;23796;51.458;7.000;2024-03-06T07:51:47;6.90;99.90
37974;DHT22;23796;51.458;7.000;2024-03-06T07:54:13;6.90;99.90
37974;DHT22;23796;51.458;7.000;2024-03-06T07:56:41;6.80;99.90
37974;DHT22;23796;51.458;7.000;2024-03-06T07:59:06;6.80;99.90
37974;DHT22;23796;51.458;7.000;2024-03-06T08:01:32;6.70;99.90
37974;DHT22;23796;51.458;7.000;2024-03-06T08:04:00;6.70;99.90
37974;DHT22;23796;51.458;7.000;2024-03-06T08:06:26;6.60;99.90
37974;DHT22;23796;51.458;7.000;2024-03-06T08:08:54;6.60;99.90
37974;DHT22;23796;51.458;7.000;2024-03-06T08:11:20;6.50;99.90
37974;DHT22;23796;51.458;7.000;2024-03-06T08:13:48;6.50;99.90
37974;DHT22;23796;51.458;7.000;2024-03-06T08:16:14;6.50;99.90
37974;DHT22;23796;51.458;7.000;2024-03-06T08:18:40;6.50;99.90
37974;DHT22;23796;51.458;7.000;2024-03-06T08:21:08;6.60;99.90
37974;DHT22;23796;51.458;7.000;2024-03-06T08:23:35;6.60;99.90
37974;DHT22;23796;51.458;7.000;2024-03-06T08:26:01;6.70;99.90
37974;DHT22;23796;51.458;7.000;2024-03-06T08:28:26;6.70;99.90
37974;DHT22;23796;51.458;7.000;2024-03-06T08:30:52;6.80;99.90
37974;DHT22;23796;51.458;7.000;2024-03-06T08:33:20;7.00;99.90
37974;DHT22;23796;51.458;7.000;2024-03-06T08:35:48;7.20;99.90
37974;DHT22;23796;51.458;7.000;2024-03-06T08:38:13;7.30;99.90
37974;DHT22;23796;51.458;7.000;2024-03-06T08:40:42;7.50;99.90
37974;DHT22;23796;51.458;7.000;2024-03-06T08:43:14;7.70;99.90
37974;DHT22;23796;51.458;7.000;2024-03-06T08:45:41;7.80;99.90
37974;DHT22;23796;51.458;7.000;2024-03-06T08:48:09;8.10;99.90
37974;DHT22;23796;51.458;7.000;2024-03-06T08:50:35;8.20;99.90
37974;DHT22;23796;51.458;7.000;2024-03-06T08:53:00;8.30;99.90
37974;DHT22;23796;51.458;7.000;2024-03-06T08:55:27;8.40;99.90
37974;DHT22;23796;51.458;7.000;2024-03-06T08:57:53;8.40;99.90
37974;DHT22;23796;51.458;7.000;2024-03-06T09:00:19;8.40;99.90
37974;DHT22;23796;51.458;7.000;2024-03-06T09:02:45;8.50;99.90
37974;DHT22;23796;51.458;7.000;2024-03-06T09:05:11;8.60;99.90
37974;DHT22;23796;51.458;7.000;2024-03-06T09:07:39;8.30;99.90
37974;DHT22;23796;51.458;7.000;2024-03-06T09:10:08;8.20;99.90
37974;DHT22;23796;51.458;7.000;2024-03-06T09:12:35;8.50;99.90
37974;DHT22;23796;51.458;7.000;2024-03-06T09:15:01;8.90;99.90
37974;DHT22;23796;51.458;7.000;2024-03-06T09:17:28;9.00;99.90
37974;DHT22;23796;51.458;7.000;2024-03-06T09:19:53;8.80;99.90
37974;DHT22;23796;51.458;7.000;2024-03-06T09:22:19;8.60;99.90
37974;DHT22;23796;51.458;7.000;2024-03-06T09:24:45;8.50;99.90
37974;DHT22;23796;51.458;7.000;2024-03-06T09:27:12;8.60;99.90
37974;DHT22;23796;51.458;7.000;2024-03-06T09:29:39;8.80;99.90
37974;DHT22;23796;51.458;7.000;2024-03-06T09:32:05;8.90;99.90
37974;DHT22;23796;51.458;7.000;2024-03-06T09:34:33;8.70;99.90
37974;DHT22;23796;51.458;7.000;2024-03-06T09:36:59;8.40;99.90
37974;DHT22;23796;51.458;7.000;2024-03-06T09:39:27;8.30;99.90
37974;DHT22;23796;51.458;7.000;2024-03-06T09:41:54;8.20;99.90
37974;DHT22;23796;51.458;7.000;2024-03-06T09:44:21;8.20;99.90
37974;DHT22;23796;51.458;7.000;2024-03-06T09:46:48;8.30;99.90
37974;DHT22;23796;51.458;7.000;2024-03-06T09:49:15;8.20;99.90
37974;DHT22;23796;51.458;7.000;2024-03-06T09:51:47;8.00;99.90
37974;DHT22;23796;51.458;7.000;2024-03-06T09:54:16;7.80;99.90
37974;DHT22;23796;51.458;7.000;2024-03-06T09:56:51;7.70;99.90
37974;DHT22;23796;51.458;7.000;2024-03-06T09:59:17;7.60;99.90
37974;DHT22;23796;51.458;7.000;2024-03-06T10:01:58;7.50;99.90
37974;DHT22;23796;51.458;7.000;2024-03-06T10:04:25;7.40;99.90
37974;DHT22;23796;51.458;7.000;2024-03-06T10:09:21;8.10;99.90
37974;DHT22;23796;51.458;7.000;2024-03-06T10:11:47;8.30;99.90
37974;DHT22;23796;51.458;7.000;2024-03-06T10:14:13;8.60;99.90
37974;DHT22;23796;51.458;7.000;2024-03-06T10:16:56;8.90;99.90
37974;DHT22;23796;51.458;7.000;2024-03-06T10:19:23;9.10;99.90
37974;DHT22;23796;51.458;7.000;2024-03-06T10:21:50;9.30;99.90
37974;DHT22;23796;51.458;7.000;2024-03-06T10:24:19;9.30;99.90
37974;DHT22;23796;51.458;7.000;2024-03-06T10:26:46;10.30;99.90
37974;DHT22;23796;51.458;7.000;2024-03-06T10:29:16;10.10;99.90
37974;DHT22;23796;51.458;7.000;2024-03-06T10:31:56;9.90;99.90
37974;DHT22;23796;51.458;7.000;2024-03-06T10:34:24;10.60;99.50
37974;DHT22;23796;51.458;7.000;2024-03-06T10:37:00;11.10;97.80
37974;DHT22;23796;51.458;7.000;2024-03-06T10:39:27;11.10;96.50
37974;DHT22;23796;51.458;7.000;2024-03-06T10:41:56;10.60;98.00
37974;DHT22;23796;51.458;7.000;2024-03-06T10:44:23;10.50;98.50
37974;DHT22;23796;51.458;7.000;2024-03-06T10:49:23;9.90;99.40
37974;DHT22;23796;51.458;7.000;2024-03-06T10:51:50;9.90;99.90
37974;DHT22;23796;51.458;7.000;2024-03-06T10:54:16;10.00;99.90
37974;DHT22;23796;51.458;7.000;2024-03-06T10:56:42;9.90;99.90
37974;DHT22;23796;51.458;7.000;2024-03-06T10:59:11;9.90;99.90
37974;DHT22;23796;51.458;7.000;2024-03-06T11:01:44;9.80;99.90
37974;DHT22;23796;51.458;7.000;2024-03-06T11:04:11;9.80;99.90
37974;DHT22;23796;51.458;7.000;2024-03-06T11:06:38;9.70;99.90
37974;DHT22;23796;51.458;7.000;2024-03-06T11:09:04;9.80;99.90
37974;DHT22;23796;51.458;7.000;2024-03-06T11:11:30;9.90;99.90
37974;DHT22;23796;51.458;7.000;2024-03-06T11:14:04;9.60;99.90
37974;DHT22;23796;51.458;7.000;2024-03-06T11:16:30;9.60;99.90
37974;DHT22;23796;51.458;7.000;2024-03-06T11:19:08;9.50;99.90
37974;DHT22;23796;51.458;7.000;2024-03-06T11:21:35;9.60;99.90
37974;DHT22;23796;51.458;7.000;2024-03-06T11:24:21;9.80;99.90
37974;DHT22;23796;51.458;7.000;2024-03-06T11:29:19;10.50;99.80
37974;DHT22;23796;51.458;7.000;2024-03-06T11:32:05;10.50;98.70
37974;DHT22;23796;51.458;7.000;2024-03-06T11:34:35;10.50;98.50
37974;DHT22;23796;51.458;7.000;2024-03-06T11:37:05;10.60;98.50
37974;DHT22;23796;51.458;7.000;2024-03-06T11:39:36;10.80;97.40
37974;DHT22;23796;51.458;7.000;2024-03-06T11:42:03;10.80;97.70
37974;DHT22;23796;51.458;7.000;2024-03-06T11:44:34;10.80;96.90
37974;DHT22;23796;51.458;7.000;2024-03-06T11:47:03;10.70;97.50
37974;DHT22;23796;51.458;7.000;2024-03-06T11:49:30;10.40;96.60
37974;DHT22;23796;51.458;7.000;2024-03-06T11:52:06;10.50;97.10
37974;DHT22;23796;51.458;7.000;2024-03-06T11:54:33;10.60;96.20
37974;DHT22;23796;51.458;7.000;2024-03-06T11:57:01;10.80;95.00
37974;DHT22;23796;51.458;7.000;2024-03-06T11:59:35;10.90;93.80
37974;DHT22;23796;51.458;7.000;2024-03-06T12:02:03;10.80;93.60
37974;DHT22;23796;51.458;7.000;2024-03-06T12:04:30;10.90;93.60
37974;DHT22;23796;51.458;7.000;2024-03-06T12:06:57;11.10;93.50
37974;DHT22;23796;51.458;7.000;2024-03-06T12:09:34;11.50;93.50
37974;DHT22;23796;51.458;7.000;2024-03-06T12:11:59;11.60;90.00
37974;DHT22;23796;51.458;7.000;2024-03-06T12:14:25;11.50;89.60
37974;DHT22;23796;51.458;7.000;2024-03-06T12:17:01;11.40;90.70
37974;DHT22;23796;51.458;7.000;2024-03-06T12:19:33;11.40;89.60
37974;DHT22;23796;51.458;7.000;2024-03-06T12:22:04;11.10;89.70
37974;DHT22;23796;51.458;7.000;2024-03-06T12:24:30;11.00;90.00
37974;DHT22;23796;51.458;7.000;2024-03-06T12:27:01;10.90;90.40
37974;DHT22;23796;51.458;7.000;2024-03-06T12:29:28;10.90;90.20
37974;DHT22;23796;51.458;7.000;2024-03-06T12:31:55;10.90;90.70
37974;DHT22;23796;51.458;7.000;2024-03-06T12:34:22;10.90;90.30
37974;DHT22;23796;51.458;7.000;2024-03-06T12:36:48;10.90;90.70
37974;DHT22;23796;51.458;7.000;2024-03-06T12:39:15;11.10;90.00
37974;DHT22;23796;51.458;7.000;2024-03-06T12:41:46;11.20;89.70
37974;DHT22;23796;51.458;7.000;2024-03-06T12:44:12;11.10;90.10
37974;DHT22;23796;51.458;7.000;2024-03-06T12:46:37;11.20;89.60
37974;DHT22;23796;51.458;7.000;2024-03-06T12:49:03;11.10;88.70
37974;DHT22;23796;51.458;7.000;2024-03-06T12:51:28;10.90;89.10
37974;DHT22;23796;51.458;7.000;2024-03-06T12:53:58;10.90;88.90
37974;DHT22;23796;51.458;7.000;2024-03-06T12:56:23;10.90;89.70
37974;DHT22;23796;51.458;7.000;2024-03-06T12:58:53;10.90;90.10
37974;DHT22;23796;51.458;7.000;2024-03-06T13:01:18;11.00;89.90
37974;DHT22;23796;51.458;7.000;2024-03-06T13:03:45;11.10;88.90
37974;DHT22;23796;51.458;7.000;2024-03-06T13:06:11;11.20;88.80
37974;DHT22;23796;51.458;7.000;2024-03-06T13:08:36;11.30;88.20
37974;DHT22;23796;51.458;7.000;2024-03-06T13:11:02;11.10;88.30
37974;DHT22;23796;51.458;7.000;2024-03-06T13:13:28;11.10;88.70
37974;DHT22;23796;51.458;7.000;2024-03-06T13:15:55;11.20;88.50
37974;DHT22;23796;51.458;7.000;2024-03-06T13:18:23;11.30;87.90
37974;DHT22;23796;51.458;7.000;2024-03-06T13:20:51;11.40;86.90
37974;DHT22;23796;51.458;7.000;2024-03-06T13:23:16;11.70;86.30
37974;DHT22;23796;51.458;7.000;2024-03-06T13:25:42;11.90;85.60
37974;DHT22;23796;51.458;7.000;2024-03-06T13:28:11;12.00;84.90
37974;DHT22;23796;51.458;7.000;2024-03-06T13:30:37;12.20;84.10
37974;DHT22;23796;51.458;7.000;2024-03-06T13:33:04;12.20;83.80
37974;DHT22;23796;51.458;7.000;2024-03-06T13:35:30;12.40;84.40
37974;DHT22;23796;51.458;7.000;2024-03-06T13:37:56;12.90;83.40
37974;DHT22;23796;51.458;7.000;2024-03-06T13:40:22;13.30;81.70
37974;DHT22;23796;51.458;7.000;2024-03-06T13:42:47;13.70;80.80
37974;DHT22;23796;51.458;7.000;2024-03-06T13:45:15;13.80;79.70
37974;DHT22;23796;51.458;7.000;2024-03-06T13:47:42;13.80;79.60
37974;DHT22;23796;51.458;7.000;2024-03-06T13:50:12;13.70;80.00
37974;DHT22;23796;51.458;7.000;2024-03-06T13:52:38;13.50;81.00
37974;DHT22;23796;51.458;7.000;2024-03-06T13:55:04;13.40;81.40
37974;DHT22;23796;51.458;7.000;2024-03-06T13:57:35;13.30;81.70
37974;DHT22;23796;51.458;7.000;2024-03-06T14:00:06;13.30;81.40
37974;DHT22;23796;51.458;7.000;2024-03-06T14:02:37;13.10;81.50
37974;DHT22;23796;51.458;7.000;2024-03-06T14:05:03;13.00;81.40
37974;DHT22;23796;51.458;7.000;2024-03-06T14:07:29;12.90;81.10
37974;DHT22;23796;51.458;7.000;2024-03-06T14:09:54;12.80;81.40
37974;DHT22;23796;51.458;7.000;2024-03-06T14:12:22;12.80;82.10
37974;DHT22;23796;51.458;7.000;2024-03-06T14:14:48;12.80;82.30
37974;DHT22;23796;51.458;7.000;2024-03-06T14:17:13;13.00;82.50
37974;DHT22;23796;51.458;7.000;2024-03-06T14:19:39;13.10;82.80
37974;DHT22;23796;51.458;7.000;2024-03-06T14:22:06;12.90;82.90
37974;DHT22;23796;51.458;7.000;2024-03-06T14:24:32;12.80;83.00
37974;DHT22;23796;51.458;7.000;2024-03-06T14:26:58;12.80;82.30
37974;DHT22;23796;51.458;7.000;2024-03-06T14:29:23;12.50;83.00
37974;DHT22;23796;51.458;7.000;2024-03-06T14:31:49;12.50;83.30
37974;DHT22;23796;51.458;7.000;2024-03-06T14:34:14;12.60;83.00
37974;DHT22;23796;51.458;7.000;2024-03-06T14:36:40;12.50;83.60
37974;DHT22;23796;51.458;7.000;2024-03-06T14:39:10;12.70;83.10
37974;DHT22;23796;51.458;7.000;2024-03-06T14:41:40;12.80;82.70
37974;DHT22;23796;51.458;7.000;2024-03-06T14:44:07;12.90;82.50
37974;DHT22;23796;51.458;7.000;2024-03-06T14:46:36;13.00;82.50
37974;DHT22;23796;51.458;7.000;2024-03-06T14:49:01;13.00;81.90
37974;DHT22;23796;51.458;7.000;2024-03-06T14:51:28;12.60;82.00
37974;DHT22;23796;51.458;7.000;2024-03-06T14:53:56;12.40;83.30
37974;DHT22;23796;51.458;7.000;2024-03-06T14:56:22;12.60;83.30
37974;DHT22;23796;51.458;7.000;2024-03-06T14:58:49;12.70;82.90
37974;DHT22;23796;51.458;7.000;2024-03-06T15:01:15;12.80;82.70
37974;DHT22;23796;51.458;7.000;2024-03-06T15:03:41;12.70;82.70
37974;DHT22;23796;51.458;7.000;2024-03-06T15:06:06;12.50;83.90
37974;DHT22;23796;51.458;7.000;2024-03-06T15:08:35;12.50;84.00
37974;DHT22;23796;51.458;7.000;2024-03-06T15:11:01;12.60;83.60
37974;DHT22;23796;51.458;7.000;2024-03-06T15:13:28;12.50;83.90
37974;DHT22;23796;51.458;7.000;2024-03-06T15:15:56;12.50;82.90
37974;DHT22;23796;51.458;7.000;2024-03-06T15:18:22;12.20;83.30
37974;DHT22;23796;51.458;7.000;2024-03-06T15:20:47;12.10;84.20
37974;DHT22;23796;51.458;7.000;2024-03-06T15:23:15;12.20;83.80
37974;DHT22;23796;51.458;7.000;2024-03-06T15:25:41;12.10;82.50
37974;DHT22;23796;51.458;7.000;2024-03-06T15:28:10;12.00;83.30
37974;DHT22;23796;51.458;7.000;2024-03-06T15:30:35;12.10;83.00
37974;DHT22;23796;51.458;7.000;2024-03-06T15:33:04;12.00;82.90
37974;DHT22;23796;51.458;7.000;2024-03-06T15:35:30;11.80;83.90
37974;DHT22;23796;51.458;7.000;2024-03-06T15:37:55;11.90;83.80
37974;DHT22;23796;51.458;7.000;2024-03-06T15:40:22;12.00;83.80
37974;DHT22;23796;51.458;7.000;2024-03-06T15:42:48;12.10;83.70
37974;DHT22;23796;51.458;7.000;2024-03-06T15:45:13;12.30;83.60
37974;DHT22;23796;51.458;7.000;2024-03-06T15:47:41;12.40;83.30
37974;DHT22;23796;51.458;7.000;2024-03-06T15:50:11;12.40;82.50